Main page
METAR-TAF:

METAR-TAF

Airports :

Londrina Airport

Londrina, Paraná, Brazil

latitude: 23-20S, longitude: 051-08W, elevation: 569 m

Current weather observation

The report was made 8 minutes ago, at 12:00 UTC
Calm wind
Temperature 27°C
Humidity 58%
Pressure 1014 hPa
Visibility 10 km or more
no clouds below 1500 m and no cumulonimbus

METAR: SBLO 261200Z 00000KT CAVOK 27/18 Q1014

Time: 09:08 (12:08 UTC)

Forecast

The report was made 3 hours and 8 minutes ago, at 09:00 UTC
Forecast valid from 26 at 12 UTC to 26 at 24 UTC
Wind kt from the North
Visibility 10 km or more
no clouds below 1500 m and no cumulonimbus
Becoming
from 26 at 14 UTC to 26 at 16 UTC
Wind 7 kt from the North/Northwest

TAF: SBLO 260900Z 2612/2624 00000KT CAVOK TN24/2612Z TX32/2618Z BECMG 2614/2616 34007KT RMK PDJ

Weather observations and forecasts of more than 4000 airports (METAR and TAF reports).

The available stations are represented by yellow and red dots on the map.

Hover mouse over dot to see the name of the station.

Then click to see weather observations and forecasts.

To change the map : click on the green buttons with a black cross to zoom in, on the green button with a dash to zoom out, or on the green arrows for adjacent maps.


METAR-TAF: